Time;durP1;ratioP1;P1;durP2;ratioP2;P2;SDS_P1;SDS_P2;PMS_P1;PMS_P2;Temp;Humidity;BMP_temperature;BMP_pressure;BME280_temperature;BME280_humidity;BME280_pressure;Samples;Min_cycle;Max_cycle;Signal;HPM_P1;HPM_P2
2022/10/06 00:00:50;;;;;;;4.40;1.50;;;;;;;17.67;71.80;100985.19;107579;1279;74976;-75
2022/10/06 00:03:23;;;;;;;2.80;1.30;;;;;;;17.66;71.91;100991.46;107604;1279;72022;-75
2022/10/06 00:05:50;;;;;;;2.30;1.20;;;;;;;17.62;72.01;100996.38;107611;1279;72993;-75
2022/10/06 00:08:18;;;;;;;4.00;1.40;;;;;;;17.59;72.33;101000.55;107510;1279;61988;-74
2022/10/06 00:10:44;;;;;;;4.20;1.40;;;;;;;17.57;72.57;101010.42;107634;1279;60841;-75
2022/10/06 00:13:12;;;;;;;3.00;1.10;;;;;;;17.55;72.64;101002.30;107727;1279;75948;-75
2022/10/06 00:15:38;;;;;;;2.80;1.20;;;;;;;17.55;72.70;101001.71;107695;1279;71174;-75
2022/10/06 00:18:05;;;;;;;3.30;1.30;;;;;;;17.58;72.76;101002.62;107602;1279;76409;-75
2022/10/06 00:20:32;;;;;;;4.10;1.40;;;;;;;17.60;72.77;101003.23;107696;1279;59885;-75
2022/10/06 00:22:58;;;;;;;2.70;1.50;;;;;;;17.61;72.81;101009.05;107613;1279;61221;-75
2022/10/06 00:25:27;;;;;;;3.60;1.40;;;;;;;17.62;72.60;101011.89;107709;1279;59678;-76
2022/10/06 00:27:53;;;;;;;4.10;1.40;;;;;;;17.65;72.43;101027.96;107551;1279;72618;-76
2022/10/06 00:30:23;;;;;;;4.20;1.60;;;;;;;17.64;73.77;101039.45;107401;1281;73789;-77
2022/10/06 00:33:01;;;;;;;2.70;1.20;;;;;;;17.38;77.64;101068.27;107478;1280;63417;-80
2022/10/06 00:35:32;;;;;;;2.20;0.80;;;;;;;16.79;78.10;101117.47;107582;1281;60468;-79
2022/10/06 00:38:03;;;;;;;1.30;0.50;;;;;;;16.29;79.03;101117.59;107451;1281;75843;-79
2022/10/06 00:40:30;;;;;;;1.80;0.60;;;;;;;15.84;81.52;101125.74;107506;1281;71964;-78
2022/10/06 00:43:02;;;;;;;2.20;0.60;;;;;;;15.47;83.26;101148.70;107631;1281;73443;-80
2022/10/06 00:45:38;;;;;;;2.70;0.70;;;;;;;15.05;84.61;101176.26;107452;1281;63415;-78
2022/10/06 00:48:14;;;;;;;1.90;0.50;;;;;;;14.69;87.62;101178.48;107537;1281;59951;-79
2022/10/06 00:50:41;;;;;;;2.30;0.60;;;;;;;14.44;88.74;101182.49;107525;1280;74964;-77
2022/10/06 00:53:09;;;;;;;1.80;0.80;;;;;;;14.24;90.09;101195.90;107559;1280;71541;-78
2022/10/06 00:55:52;;;;;;;1.70;0.90;;;;;;;14.03;91.31;101213.03;107567;1281;72750;-78
2022/10/06 00:58:20;;;;;;;1.60;0.60;;;;;;;13.80;92.92;101207.67;107538;1280;63235;-78
2022/10/06 01:00:49;;;;;;;2.90;0.70;;;;;;;13.61;94.56;101214.30;107515;1280;61356;-78
2022/10/06 01:03:36;;;;;;;1.70;0.60;;;;;;;13.46;96.10;101221.77;107566;1280;75946;-80
2022/10/06 01:06:03;;;;;;;2.60;0.80;;;;;;;13.31;97.37;101191.34;107409;1281;71207;-78
2022/10/06 01:08:31;;;;;;;2.20;0.70;;;;;;;13.24;97.93;101172.32;107355;1281;73221;-77
2022/10/06 01:10:58;;;;;;;4.00;0.80;;;;;;;13.19;98.13;101170.02;107507;1280;61932;-78
2022/10/06 01:13:26;;;;;;;1.70;0.60;;;;;;;13.16;98.48;101159.77;107486;1280;60717;-77
2022/10/06 01:16:00;;;;;;;4.30;0.90;;;;;;;13.14;98.91;101161.98;107518;1280;76534;-78
2022/10/06 01:18:28;;;;;;;1.70;0.60;;;;;;;13.11;99.22;101178.48;107575;1280;71384;-79
2022/10/06 01:21:08;;;;;;;1.20;0.50;;;;;;;13.09;98.89;101188.12;107576;1281;72425;-78
2022/10/06 01:23:35;;;;;;;3.00;0.60;;;;;;;13.09;98.61;101207.31;107539;1280;61243;-77
2022/10/06 01:26:06;;;;;;;2.60;0.70;;;;;;;13.10;98.49;101199.75;107420;1281;60594;-78
2022/10/06 01:28:33;;;;;;;1.90;0.60;;;;;;;13.12;98.69;101200.23;107513;1280;74921;-78
2022/10/06 01:31:00;;;;;;;2.10;0.70;;;;;;;13.10;98.64;101209.99;107551;1280;72306;-79
2022/10/06 01:33:28;;;;;;;0.70;0.40;;;;;;;13.07;98.93;101219.53;107505;1281;74169;-78
2022/10/06 01:35:55;;;;;;;2.40;0.60;;;;;;;13.05;98.73;101222.48;107456;1281;61990;-78
2022/10/06 01:38:22;;;;;;;1.60;0.60;;;;;;;13.04;98.42;101228.18;107453;1281;62049;-79
2022/10/06 01:40:51;;;;;;;2.30;0.50;;;;;;;13.04;97.31;101225.75;107210;1281;74638;-79
2022/10/06 01:43:18;;;;;;;1.50;0.50;;;;;;;13.03;96.43;101238.29;107475;1280;71187;-78
2022/10/06 01:45:44;;;;;;;1.50;0.40;;;;;;;13.02;95.53;101250.63;107271;1281;73915;-78
2022/10/06 01:48:11;;;;;;;1.50;0.50;;;;;;;13.02;95.21;101260.55;107600;1281;63429;-78
2022/10/06 01:50:39;;;;;;;1.40;0.50;;;;;;;13.01;94.71;101250.20;107615;1280;61188;-79
2022/10/06 01:53:06;;;;;;;0.90;0.30;;;;;;;13.01;94.41;101255.08;107644;1280;76365;-79
2022/10/06 01:55:34;;;;;;;2.20;0.50;;;;;;;13.00;94.21;101258.21;107579;1281;70521;-78
2022/10/06 01:58:00;;;;;;;0.60;0.40;;;;;;;13.01;93.86;101258.93;107561;1281;74003;-79
2022/10/06 02:00:27;;;;;;;1.80;0.40;;;;;;;13.01;93.54;101257.17;107584;1281;62240;-78
2022/10/06 02:02:54;;;;;;;1.60;0.40;;;;;;;12.99;93.26;101255.95;107507;1281;61343;-78
2022/10/06 02:05:21;;;;;;;1.70;0.50;;;;;;;12.99;93.08;101256.71;107524;1281;76143;-78
2022/10/06 02:07:48;;;;;;;1.90;0.60;;;;;;;12.98;92.74;101254.69;107533;1281;72577;-79
2022/10/06 02:10:15;;;;;;;1.60;0.30;;;;;;;12.98;92.62;101260.95;107573;1280;72908;-78
2022/10/06 02:12:42;;;;;;;1.10;0.50;;;;;;;12.99;92.48;101259.14;107590;1279;61070;-79
2022/10/06 02:15:09;;;;;;;3.20;0.40;;;;;;;12.99;92.11;101266.23;107454;1282;61317;-79
2022/10/06 02:17:37;;;;;;;2.50;0.50;;;;;;;13.00;91.87;101266.56;107299;1281;75768;-79
2022/10/06 02:20:05;;;;;;;2.10;0.40;;;;;;;12.99;91.59;101266.48;107389;1281;70947;-79
2022/10/06 02:22:36;;;;;;;2.10;0.40;;;;;;;13.00;91.32;101272.69;107578;1280;74010;-78
2022/10/06 02:25:04;;;;;;;2.20;0.30;;;;;;;13.02;91.00;101277.02;107612;1281;60999;-79
2022/10/06 02:27:30;;;;;;;2.60;0.40;;;;;;;13.02;90.46;101288.46;107496;1281;60626;-81
2022/10/06 02:29:57;;;;;;;2.50;0.40;;;;;;;13.04;90.39;101293.93;107608;1279;60498;-79
2022/10/06 02:32:31;;;;;;;1.50;0.40;;;;;;;13.04;90.20;101300.83;107507;1280;72774;-79
2022/10/06 02:34:59;;;;;;;1.60;0.40;;;;;;;13.04;89.89;101305.30;107649;1280;73732;-80
2022/10/06 02:37:25;;;;;;;1.00;0.40;;;;;;;13.03;89.88;101310.89;107569;1281;61526;-80
2022/10/06 02:39:52;;;;;;;2.20;0.40;;;;;;;13.00;89.72;101325.29;107709;1281;60417;-80
2022/10/06 02:42:18;;;;;;;2.00;0.40;;;;;;;12.99;89.74;101324.03;107717;1281;74751;-80
2022/10/06 02:44:45;;;;;;;1.60;0.40;;;;;;;12.97;89.70;101339.04;107723;1281;71228;-80
2022/10/06 02:47:13;;;;;;;1.50;0.50;;;;;;;12.95;89.91;101341.73;107673;1281;72379;-81
2022/10/06 02:49:40;;;;;;;4.90;0.70;;;;;;;12.93;89.85;101354.13;107672;1280;62369;-80
2022/10/06 02:52:07;;;;;;;2.30;0.50;;;;;;;12.95;89.89;101361.77;107626;1280;61027;-80
2022/10/06 02:54:35;;;;;;;1.60;0.50;;;;;;;12.96;89.89;101365.23;107669;1281;75723;-81
2022/10/06 02:57:02;;;;;;;1.60;0.50;;;;;;;12.95;90.20;101372.89;107622;1280;72516;-80
2022/10/06 02:59:29;;;;;;;2.80;0.70;;;;;;;12.96;90.20;101376.05;107562;1280;73005;-81
2022/10/06 03:01:56;;;;;;;4.70;0.80;;;;;;;12.95;90.32;101380.35;107443;1281;62218;-80
2022/10/06 03:04:23;;;;;;;2.90;0.60;;;;;;;12.97;90.48;101386.76;107645;1280;61579;-80
2022/10/06 03:06:50;;;;;;;3.40;0.80;;;;;;;12.96;90.50;101390.95;107654;1280;75987;-81
2022/10/06 03:09:17;;;;;;;4.30;0.80;;;;;;;12.94;90.54;101400.77;107685;1281;71560;-81
2022/10/06 03:11:44;;;;;;;3.60;0.70;;;;;;;12.94;90.63;101408.25;107526;1281;73939;-81
2022/10/06 03:14:11;;;;;;;6.10;1.10;;;;;;;12.94;90.72;101405.69;107679;1281;63322;-82
2022/10/06 03:16:42;;;;;;;4.60;1.00;;;;;;;12.93;90.76;101416.31;107745;1280;60670;-80
2022/10/06 03:19:09;;;;;;;2.80;0.80;;;;;;;12.94;90.53;101416.01;107790;1281;74724;-81
2022/10/06 03:21:38;;;;;;;3.50;1.20;;;;;;;12.95;90.22;101421.06;107815;1281;72084;-80
2022/10/06 03:24:05;;;;;;;4.20;1.10;;;;;;;12.97;89.76;101433.23;107843;1281;73139;-81
2022/10/06 03:26:40;;;;;;;4.90;1.00;;;;;;;13.00;89.45;101435.52;108035;1281;62218;-81
2022/10/06 03:29:08;;;;;;;3.60;0.90;;;;;;;13.01;89.31;101431.39;107470;1281;59694;-81
2022/10/06 03:31:38;;;;;;;4.60;1.00;;;;;;;13.01;89.11;101436.88;108097;1281;75476;-81
2022/10/06 03:34:06;;;;;;;4.30;1.00;;;;;;;13.01;88.86;101446.84;107749;1281;72001;-80
2022/10/06 03:36:33;;;;;;;4.20;1.00;;;;;;;13.01;88.73;101442.91;108038;1281;72822;-80
2022/10/06 03:39:01;;;;;;;6.50;1.40;;;;;;;13.00;88.83;101450.78;108069;1279;61944;-81
2022/10/06 03:41:30;;;;;;;3.90;1.00;;;;;;;13.01;88.69;101448.60;108080;1281;61558;-82
2022/10/06 03:43:58;;;;;;;7.00;1.60;;;;;;;13.00;88.42;101456.18;108078;1281;74546;-82
2022/10/06 03:46:31;;;;;;;4.70;1.00;;;;;;;13.00;88.50;101458.61;108130;1281;71338;-83
2022/10/06 03:48:59;;;;;;;4.60;1.00;;;;;;;12.99;88.22;101457.13;107907;1281;73096;-83
2022/10/06 03:51:28;;;;;;;7.90;1.20;;;;;;;13.00;88.09;101454.60;108119;1281;62525;-82
2022/10/06 03:53:56;;;;;;;5.70;1.60;;;;;;;12.99;88.09;101464.98;108231;1281;60285;-84
2022/10/06 03:56:28;;;;;;;10.30;1.40;;;;;;;12.98;88.21;101471.32;108158;1281;75063;-83
2022/10/06 03:58:58;;;;;;;8.10;1.30;;;;;;;12.97;88.08;101477.73;107609;1281;71493;-82
2022/10/06 04:01:28;;;;;;;6.40;1.10;;;;;;;12.98;88.05;101479.80;107771;1281;72732;-83
2022/10/06 04:03:56;;;;;;;5.30;1.20;;;;;;;13.00;87.98;101476.77;107748;1281;63017;-84
2022/10/06 04:06:25;;;;;;;4.30;0.90;;;;;;;12.99;87.87;101476.48;107494;1281;59207;-83
2022/10/06 04:08:53;;;;;;;4.40;1.10;;;;;;;12.97;87.83;101486.33;107789;1281;74976;-82
2022/10/06 04:11:29;;;;;;;7.40;1.50;;;;;;;12.94;87.90;101490.94;107544;1281;71738;-83
2022/10/06 04:14:04;;;;;;;6.50;1.60;;;;;;;12.93;87.82;101500.30;107518;1281;73969;-84
2022/10/06 04:16:40;;;;;;;7.20;1.60;;;;;;;12.93;87.85;101508.83;107675;1279;61235;-83
2022/10/06 04:19:08;;;;;;;6.20;1.30;;;;;;;12.94;87.95;101500.48;107659;1281;60860;-83
2022/10/06 04:21:37;;;;;;;5.10;1.10;;;;;;;12.97;87.69;101499.61;107538;1281;74501;-82
2022/10/06 04:24:05;;;;;;;5.40;1.30;;;;;;;13.01;87.77;101504.66;107652;1281;71663;-82
2022/10/06 04:26:35;;;;;;;9.20;1.40;;;;;;;13.04;87.65;101506.85;107280;1281;73937;-82
2022/10/06 04:29:02;;;;;;;5.50;1.10;;;;;;;13.07;87.46;101516.80;107539;1281;62199;-82
2022/10/06 04:31:32;;;;;;;3.20;1.00;;;;;;;13.09;87.46;101521.42;107300;1281;60461;-82
2022/10/06 04:34:00;;;;;;;7.00;1.40;;;;;;;13.09;87.64;101525.34;107388;1281;75648;-82
2022/10/06 04:36:33;;;;;;;9.10;1.70;;;;;;;13.07;87.46;101533.69;107318;1271;71393;-86
2022/10/06 04:39:02;;;;;;;5.50;1.20;;;;;;;13.06;87.43;101531.45;107426;1271;73178;-87
2022/10/06 04:41:31;;;;;;;6.40;1.20;;;;;;;13.04;87.26;101539.14;107590;1268;60861;-86
2022/10/06 04:43:58;;;;;;;7.90;1.50;;;;;;;13.02;87.61;101543.98;107546;1274;63139;-86
2022/10/06 04:46:27;;;;;;;5.50;1.40;;;;;;;13.04;87.16;101545.25;107663;1280;75256;-85
2022/10/06 04:49:09;;;;;;;6.30;1.40;;;;;;;13.02;86.89;101546.14;107661;1274;72674;-86
2022/10/06 04:51:44;;;;;;;5.60;1.30;;;;;;;13.02;86.43;101554.69;107219;1278;77573;-86
2022/10/06 04:54:11;;;;;;;6.40;1.30;;;;;;;13.03;85.85;101556.86;107647;1281;62017;-85
2022/10/06 04:56:38;;;;;;;6.20;1.50;;;;;;;13.04;85.63;101559.05;107683;1281;61693;-87
2022/10/06 04:59:05;;;;;;;6.10;1.50;;;;;;;13.02;84.97;101564.92;107528;1281;76565;-85
2022/10/06 05:01:35;;;;;;;9.40;2.00;;;;;;;13.05;84.22;101567.70;107535;1280;71350;-84
2022/10/06 05:04:04;;;;;;;7.40;1.50;;;;;;;13.04;83.70;101573.25;107539;1281;74347;-85
2022/10/06 05:06:34;;;;;;;6.30;1.20;;;;;;;13.03;83.60;101580.48;107444;1281;62080;-85
2022/10/06 05:09:04;;;;;;;7.80;1.80;;;;;;;13.03;83.27;101587.20;107784;1271;59596;-85
2022/10/06 05:11:30;;;;;;;7.90;1.60;;;;;;;13.03;82.44;101594.29;107708;1280;75422;-84
2022/10/06 05:13:58;;;;;;;8.00;1.30;;;;;;;13.06;81.89;101603.00;107632;1280;69859;-76
2022/10/06 05:16:26;;;;;;;7.30;1.30;;;;;;;13.12;81.74;101612.18;107548;1281;73786;-76
2022/10/06 05:18:53;;;;;;;8.80;1.40;;;;;;;13.13;81.39;101616.84;107717;1279;61831;-76
2022/10/06 05:21:22;;;;;;;6.50;1.30;;;;;;;13.15;80.98;101626.89;107701;1281;61359;-75
2022/10/06 05:23:49;;;;;;;6.80;1.30;;;;;;;13.19;80.64;101635.88;107617;1279;75884;-75
2022/10/06 05:26:18;;;;;;;6.80;1.60;;;;;;;13.22;80.25;101645.91;107601;1279;71486;-76
2022/10/06 05:28:45;;;;;;;8.60;1.50;;;;;;;13.22;80.33;101650.14;107587;1281;73447;-75
2022/10/06 05:31:16;;;;;;;8.90;1.60;;;;;;;13.25;80.50;101650.38;107669;1280;62127;-75
2022/10/06 05:33:43;;;;;;;5.70;1.20;;;;;;;13.26;80.75;101658.77;107638;1279;60991;-76
2022/10/06 05:36:21;;;;;;;12.20;1.60;;;;;;;13.27;81.00;101660.48;107804;1279;74867;-76
2022/10/06 05:38:49;;;;;;;6.90;1.80;;;;;;;13.27;80.57;101670.71;107588;1279;72497;-77
2022/10/06 05:41:19;;;;;;;7.10;2.00;;;;;;;13.28;80.74;101672.60;107705;1280;72992;-76
2022/10/06 05:43:46;;;;;;;10.90;3.00;;;;;;;13.29;80.82;101678.55;107776;1279;61138;-77
2022/10/06 05:46:19;;;;;;;8.20;2.30;;;;;;;13.29;80.69;101684.45;107484;1281;60674;-76
2022/10/06 05:48:47;;;;;;;5.60;1.20;;;;;;;13.29;80.92;101686.36;107755;1280;74861;-76
2022/10/06 05:51:15;;;;;;;9.00;1.90;;;;;;;13.28;81.13;101694.23;107661;1280;72234;-76
2022/10/06 05:53:42;;;;;;;9.90;2.90;;;;;;;13.24;81.12;101698.07;107811;1279;73002;-76
2022/10/06 05:56:13;;;;;;;6.00;1.80;;;;;;;13.22;81.07;101699.90;107569;1279;61419;-76
2022/10/06 05:58:42;;;;;;;9.60;1.60;;;;;;;13.21;81.34;101710.63;107853;1279;61832;-76
2022/10/06 06:01:12;;;;;;;7.30;1.40;;;;;;;13.24;81.44;101708.93;107785;1279;73628;-76
2022/10/06 06:03:40;;;;;;;17.40;9.20;;;;;;;13.24;81.60;101718.02;107768;1279;72549;-78
2022/10/06 06:06:32;;;;;;;14.10;8.50;;;;;;;13.25;81.38;101717.73;107764;1279;73007;-79
2022/10/06 06:09:09;;;;;;;10.40;4.50;;;;;;;13.24;80.81;101723.98;107831;1279;63094;-78
2022/10/06 06:11:38;;;;;;;10.10;3.20;;;;;;;13.23;81.03;101724.18;107896;1279;60564;-79
2022/10/06 06:14:08;;;;;;;28.80;18.80;;;;;;;13.21;81.11;101737.34;107869;1279;74980;-79
2022/10/06 06:16:46;;;;;;;24.70;14.70;;;;;;;13.18;81.07;101738.83;107837;1279;71073;-78
2022/10/06 06:19:18;;;;;;;18.20;11.00;;;;;;;13.16;80.88;101745.33;107407;1281;71697;-78
2022/10/06 06:21:52;;;;;;;20.50;11.70;;;;;;;13.13;80.21;101748.09;107854;1279;62156;-79
2022/10/06 06:24:19;;;;;;;12.50;6.80;;;;;;;13.12;80.15;101752.89;107837;1279;60546;-79
2022/10/06 06:26:46;;;;;;;18.40;10.60;;;;;;;13.13;80.04;101755.98;107785;1279;75822;-79
2022/10/06 06:29:12;;;;;;;15.70;10.50;;;;;;;13.16;79.63;101763.95;107772;1279;71322;-79
2022/10/06 06:31:42;;;;;;;21.20;13.10;;;;;;;13.19;79.37;101771.46;107569;1279;71772;-78
2022/10/06 06:34:10;;;;;;;16.70;8.80;;;;;;;13.19;78.81;101780.52;107829;1279;61959;-79
2022/10/06 06:36:39;;;;;;;9.00;2.10;;;;;;;13.19;78.70;101781.89;107867;1279;62479;-79
2022/10/06 06:39:09;;;;;;;7.30;2.70;;;;;;;13.23;78.44;101785.54;107841;1279;76166;-79
2022/10/06 06:41:39;;;;;;;8.90;1.90;;;;;;;13.28;78.23;101787.55;107743;1281;71374;-78
2022/10/06 06:44:09;;;;;;;12.10;6.70;;;;;;;13.31;78.05;101794.35;107803;1279;72947;-78
2022/10/06 06:46:37;;;;;;;13.00;4.50;;;;;;;13.32;77.10;101803.81;107817;1279;62214;-79
2022/10/06 06:49:05;;;;;;;17.80;9.30;;;;;;;13.34;77.31;101810.17;107773;1279;60675;-78
2022/10/06 06:51:34;;;;;;;18.20;9.50;;;;;;;13.39;77.43;101822.95;107785;1279;74338;-79
2022/10/06 06:54:01;;;;;;;7.90;2.40;;;;;;;13.41;77.04;101821.89;107698;1279;72658;-80
2022/10/06 06:56:33;;;;;;;17.20;9.20;;;;;;;13.42;76.64;101822.35;107759;1279;73154;-78
2022/10/06 06:59:07;;;;;;;15.10;6.80;;;;;;;13.47;76.56;101831.05;107737;1279;62215;-78
2022/10/06 07:01:34;;;;;;;7.20;1.70;;;;;;;13.49;75.80;101835.05;107776;1279;61577;-79
2022/10/06 07:04:01;;;;;;;6.30;1.70;;;;;;;13.54;76.40;101838.42;107829;1279;75113;-76
2022/10/06 07:06:29;;;;;;;8.90;4.60;;;;;;;13.58;76.26;101837.41;107584;1280;71416;-76
2022/10/06 07:08:58;;;;;;;8.50;2.00;;;;;;;13.61;75.77;101846.84;107797;1279;74063;-76
2022/10/06 07:11:28;;;;;;;17.40;6.70;;;;;;;13.62;75.01;101851.23;107554;1281;62097;-77
2022/10/06 07:13:57;;;;;;;13.40;5.20;;;;;;;13.61;74.80;101855.73;107776;1279;61856;-78
2022/10/06 07:25:07;;;;;;;20.40;9.10;;;;;;;13.73;74.48;101872.08;107685;1279;63305;-78
2022/10/06 07:27:34;;;;;;;9.40;3.60;;;;;;;13.80;74.33;101880.15;107704;1279;60328;-78
2022/10/06 07:30:03;;;;;;;13.70;5.70;;;;;;;13.89;74.04;101884.56;107792;1279;75591;-78
2022/10/06 07:32:30;;;;;;;23.10;13.30;;;;;;;13.95;73.74;101890.70;107707;1279;71399;-78
2022/10/06 07:34:57;;;;;;;13.90;5.70;;;;;;;14.00;73.89;101891.06;107807;1279;73717;-78
2022/10/06 07:37:24;;;;;;;5.60;1.40;;;;;;;14.09;73.86;101902.13;107798;1279;62300;-77
2022/10/06 07:39:51;;;;;;;12.70;4.30;;;;;;;14.16;73.01;101917.16;107674;1279;60650;-78
2022/10/06 07:42:19;;;;;;;10.60;2.60;;;;;;;14.24;73.10;101913.85;107663;1279;73915;-78
2022/10/06 07:45:37;;;;;;;9.20;1.80;;;;;;;14.31;72.76;101920.78;107760;1280;71526;-78
2022/10/06 07:47:36;;;;;;;7.30;1.70;;;;;;;14.31;71.64;101922.31;107762;1279;73392;-78
2022/10/06 07:50:07;;;;;;;9.00;1.50;;;;;;;14.26;71.25;101927.13;107534;1279;63341;-78
2022/10/06 07:52:38;;;;;;;9.10;2.90;;;;;;;14.24;70.91;101933.04;107743;1279;59988;-78
2022/10/06 07:55:05;;;;;;;9.90;3.40;;;;;;;14.24;70.57;101938.84;107824;1279;76210;-79
2022/10/06 07:57:34;;;;;;;13.20;5.50;;;;;;;14.25;71.34;101939.15;107752;1279;73601;-78
2022/10/06 08:00:04;;;;;;;7.40;2.90;;;;;;;14.37;72.02;101941.64;107824;1279;73010;-78
2022/10/06 08:02:31;;;;;;;11.20;4.00;;;;;;;14.44;70.97;101943.65;107506;1281;62242;-78
2022/10/06 08:05:02;;;;;;;5.80;1.30;;;;;;;14.49;70.49;101949.38;107812;1279;59177;-78
2022/10/06 08:07:29;;;;;;;7.60;2.40;;;;;;;14.49;70.23;101952.02;107784;1277;74742;-78
2022/10/06 08:09:56;;;;;;;14.30;2.00;;;;;;;14.46;69.95;101961.27;107788;1279;72300;-76
2022/10/06 08:12:31;;;;;;;8.00;2.60;;;;;;;14.38;69.17;101965.15;107785;1279;74587;-76
2022/10/06 08:15:02;;;;;;;10.20;2.40;;;;;;;14.37;69.72;101967.06;107691;1279;63171;-76
2022/10/06 08:17:35;;;;;;;9.60;1.80;;;;;;;14.42;69.94;101971.99;107440;1279;60680;-76
2022/10/06 08:20:05;;;;;;;10.20;2.80;;;;;;;14.41;69.32;101968.95;107809;1279;74758;-76
2022/10/06 08:22:32;;;;;;;9.80;1.70;;;;;;;14.50;69.97;101972.54;107824;1279;71385;-76
2022/10/06 08:24:59;;;;;;;6.60;2.00;;;;;;;14.62;69.60;101976.06;107820;1279;73062;-76
2022/10/06 08:27:36;;;;;;;9.10;2.20;;;;;;;14.64;68.33;101981.10;107748;1279;62021;-76
2022/10/06 08:30:04;;;;;;;9.60;2.40;;;;;;;14.71;67.88;101988.95;107784;1279;60354;-76
2022/10/06 08:32:33;;;;;;;5.90;1.40;;;;;;;14.78;67.83;101995.36;107728;1280;75896;-76
2022/10/06 08:35:01;;;;;;;6.80;1.50;;;;;;;14.85;67.35;101993.27;107806;1279;71839;-76
2022/10/06 08:37:28;;;;;;;8.20;1.80;;;;;;;14.84;66.91;102003.76;107792;1279;73460;-76
2022/10/06 08:39:56;;;;;;;8.80;1.40;;;;;;;14.89;66.37;101997.66;107809;1279;62322;-76
2022/10/06 08:42:42;;;;;;;10.70;4.90;;;;;;;15.00;66.33;101991.80;107782;1281;60846;-75
2022/10/06 08:45:22;;;;;;;10.00;2.80;;;;;;;15.07;65.92;101999.20;107810;1279;75002;-75
2022/10/06 08:47:55;;;;;;;7.30;2.70;;;;;;;15.14;65.15;102001.68;107510;1281;71475;-75
2022/10/06 08:50:26;;;;;;;7.90;1.60;;;;;;;15.19;65.10;102005.37;107728;1279;72914;-75
2022/10/06 08:53:20;;;;;;;9.30;2.40;;;;;;;15.31;65.27;102004.85;107728;1279;62470;-75
2022/10/06 08:55:52;;;;;;;8.80;2.90;;;;;;;15.42;63.56;102007.50;107815;1279;60179;-75
2022/10/06 08:58:29;;;;;;;7.20;1.50;;;;;;;15.50;63.06;102005.04;107722;1279;74957;-76
2022/10/06 09:01:40;;;;;;;7.60;1.40;;;;;;;15.56;63.28;102016.06;107717;1279;70733;-74
2022/10/06 09:04:13;;;;;;;6.60;1.20;;;;;;;15.65;61.85;102024.38;106736;1288;74692;-75
2022/10/06 09:07:04;;;;;;;7.50;1.90;;;;;;;15.66;60.84;102025.30;106821;1287;62131;-75
2022/10/06 09:09:53;;;;;;;8.40;2.50;;;;;;;15.69;59.96;102030.14;107583;1277;60440;-75
2022/10/06 09:12:29;;;;;;;10.00;4.20;;;;;;;15.71;58.74;102040.42;107692;1279;75940;-75
2022/10/06 09:15:22;;;;;;;6.90;1.60;;;;;;;15.68;59.12;102039.30;107826;1279;71833;-75
2022/10/06 09:17:59;;;;;;;6.30;1.20;;;;;;;15.69;59.54;102034.26;107527;1281;73124;-75
2022/10/06 09:20:45;;;;;;;9.60;1.30;;;;;;;15.66;59.45;102045.43;107802;1279;60541;-76
2022/10/06 09:23:16;;;;;;;4.80;1.20;;;;;;;15.72;60.08;102039.63;107843;1279;60804;-75
2022/10/06 09:25:43;;;;;;;6.20;1.30;;;;;;;15.80;60.50;102046.95;107817;1279;74781;-75
2022/10/06 09:28:14;;;;;;;6.90;1.50;;;;;;;15.84;60.55;102055.52;107835;1279;72490;-75
2022/10/06 09:30:42;;;;;;;6.30;1.60;;;;;;;15.88;59.11;102054.70;107773;1279;73004;-75
2022/10/06 09:33:20;;;;;;;5.40;1.10;;;;;;;15.83;58.87;102052.42;107717;1280;61640;-75
2022/10/06 09:36:09;;;;;;;6.80;1.30;;;;;;;15.85;59.61;102059.67;107743;1279;60449;-76
2022/10/06 09:38:47;;;;;;;6.50;1.20;;;;;;;15.84;59.43;102059.64;107770;1280;76164;-75
2022/10/06 09:41:16;;;;;;;5.70;1.10;;;;;;;15.86;58.40;102061.00;107722;1279;73092;-75
2022/10/06 09:43:52;;;;;;;4.30;1.00;;;;;;;15.91;58.50;102058.09;107774;1279;74077;-72
2022/10/06 09:46:27;;;;;;;7.20;1.30;;;;;;;15.96;58.34;102060.65;107525;1279;60837;-75
2022/10/06 09:49:06;;;;;;;5.40;1.60;;;;;;;16.07;59.20;102062.91;107791;1279;61277;-76
2022/10/06 09:51:35;;;;;;;5.20;1.10;;;;;;;16.19;58.89;102065.03;107737;1279;75253;-75
2022/10/06 09:54:14;;;;;;;6.50;1.20;;;;;;;16.29;57.27;102063.39;107815;1279;72842;-75
2022/10/06 09:56:43;;;;;;;7.00;1.20;;;;;;;16.30;56.11;102063.71;107779;1281;71810;-75
2022/10/06 09:59:30;;;;;;;3.90;0.90;;;;;;;16.31;54.90;102073.31;107795;1279;60469;-75
2022/10/06 10:02:03;;;;;;;5.80;1.20;;;;;;;16.22;54.75;102080.64;107549;1279;60894;-75
2022/10/06 10:04:36;;;;;;;4.50;1.10;;;;;;;16.25;56.09;102078.84;107749;1279;74986;-75
2022/10/06 10:07:33;;;;;;;5.50;1.20;;;;;;;16.31;56.46;102086.16;107777;1279;72318;-72
2022/10/06 10:10:21;;;;;;;6.10;1.00;;;;;;;16.34;55.18;102090.63;107586;1279;71244;-75
2022/10/06 10:12:53;;;;;;;5.70;1.20;;;;;;;16.42;55.18;102092.11;107815;1279;60494;-75
2022/10/06 10:15:20;;;;;;;6.50;1.20;;;;;;;16.49;55.18;102097.98;107437;1281;61530;-75
2022/10/06 10:17:48;;;;;;;6.00;1.10;;;;;;;16.60;55.30;102090.98;107755;1278;75587;-75
2022/10/06 10:20:23;;;;;;;7.60;1.20;;;;;;;16.75;55.11;102107.51;107817;1279;72358;-72
2022/10/06 10:22:52;;;;;;;4.40;1.30;;;;;;;16.90;55.05;102097.72;107819;1279;72740;-73
2022/10/06 10:25:44;;;;;;;4.60;1.20;;;;;;;16.98;54.02;102100.83;107818;1279;60993;-75
2022/10/06 10:28:14;;;;;;;6.00;1.10;;;;;;;16.94;52.77;102121.49;107819;1278;60239;-74
2022/10/06 10:31:00;;;;;;;6.30;1.10;;;;;;;16.93;52.67;102107.38;107767;1279;74898;-74
2022/10/06 10:34:05;;;;;;;5.60;1.00;;;;;;;16.81;51.90;102110.77;107841;1279;73053;-74
2022/10/06 10:36:58;;;;;;;6.60;1.00;;;;;;;16.56;51.68;102115.78;107799;1279;71841;-74
2022/10/06 10:39:42;;;;;;;6.80;1.20;;;;;;;16.43;52.94;102107.27;107817;1279;60177;-73
2022/10/06 10:42:27;;;;;;;5.30;1.20;;;;;;;16.26;53.08;102110.27;107815;1279;59316;-74
2022/10/06 10:44:59;;;;;;;6.50;1.10;;;;;;;16.20;54.00;102114.06;107714;1279;76130;-74
2022/10/06 10:47:35;;;;;;;6.00;1.10;;;;;;;16.16;53.45;102119.98;107581;1281;71893;-74
2022/10/06 10:50:07;;;;;;;4.40;1.10;;;;;;;16.08;53.74;102120.73;107814;1279;72833;-73
2022/10/06 10:52:40;;;;;;;5.80;1.00;;;;;;;16.01;53.38;102117.16;107828;1279;62015;-73
2022/10/06 10:55:29;;;;;;;5.40;1.00;;;;;;;16.09;54.32;102118.84;107836;1279;61889;-74
2022/10/06 10:58:03;;;;;;;6.50;1.00;;;;;;;16.16;53.50;102117.55;107696;1279;75689;-73
2022/10/06 11:00:36;;;;;;;4.60;0.90;;;;;;;16.28;52.98;102117.05;107817;1279;71511;-73
2022/10/06 11:03:03;;;;;;;4.40;0.90;;;;;;;16.39;52.41;102117.41;107803;1279;72378;-73
2022/10/06 11:06:04;;;;;;;4.40;1.20;;;;;;;16.47;52.92;102112.36;107814;1279;61738;-74
2022/10/06 11:09:08;;;;;;;6.80;1.10;;;;;;;16.61;52.89;102113.95;107794;1278;60144;-74
2022/10/06 11:11:42;;;;;;;4.50;0.90;;;;;;;16.66;51.49;102118.26;107684;1279;74773;-73
2022/10/06 11:14:35;;;;;;;3.10;1.00;;;;;;;16.73;51.88;102111.41;107750;1279;71065;-73
2022/10/06 11:17:42;;;;;;;5.00;1.10;;;;;;;16.75;51.45;102127.64;107777;1279;72874;-73
2022/10/06 11:20:35;;;;;;;6.00;0.90;;;;;;;16.75;51.69;102118.12;107681;1280;61550;-73
2022/10/06 11:23:23;;;;;;;4.90;0.70;;;;;;;16.79;51.58;102114.73;107811;1270;60561;-73
2022/10/06 11:26:06;;;;;;;4.60;0.90;;;;;;;16.90;51.40;102117.81;107998;1277;75979;-73
2022/10/06 11:28:42;;;;;;;6.20;1.20;;;;;;;17.04;50.55;102126.77;107905;1267;72478;-72
2022/10/06 11:31:31;;;;;;;4.80;0.90;;;;;;;17.11;50.46;102127.73;107716;1278;72920;-73
2022/10/06 11:34:01;;;;;;;6.10;1.00;;;;;;;17.36;50.28;102125.29;107674;1280;60304;-72
2022/10/06 11:36:36;;;;;;;6.20;1.40;;;;;;;17.63;49.25;102120.08;107796;1279;60576;-72
2022/10/06 11:39:29;;;;;;;4.90;1.20;;;;;;;18.05;48.29;102125.50;107692;1279;75324;-72
2022/10/06 11:42:29;;;;;;;4.20;1.10;;;;;;;18.51;47.23;102133.44;107814;1279;72215;-72
2022/10/06 11:45:29;;;;;;;7.00;1.20;;;;;;;18.98;46.24;102125.50;107703;1279;72839;-72
2022/10/06 11:48:20;;;;;;;4.10;1.30;;;;;;;19.60;45.00;102123.58;107725;1279;60666;-73